sensor_id;sensor_type;location;lat;lon;timestamp;temperature;humidity
30288;DHT22;17103;48.316;11.558;2024-02-21T00:02:10;12.10;42.20
30288;DHT22;17103;48.316;11.558;2024-02-21T00:04:36;12.10;42.30
30288;DHT22;17103;48.316;11.558;2024-02-21T00:07:04;12.10;42.20
30288;DHT22;17103;48.316;11.558;2024-02-21T00:09:30;12.70;42.60
30288;DHT22;17103;48.316;11.558;2024-02-21T00:11:55;12.10;41.90
30288;DHT22;17103;48.316;11.558;2024-02-21T00:14:21;12.10;41.80
30288;DHT22;17103;48.316;11.558;2024-02-21T00:16:47;12.10;41.80
30288;DHT22;17103;48.316;11.558;2024-02-21T00:19:13;12.00;41.70
30288;DHT22;17103;48.316;11.558;2024-02-21T00:21:40;12.00;41.20
30288;DHT22;17103;48.316;11.558;2024-02-21T00:24:06;11.90;41.30
30288;DHT22;17103;48.316;11.558;2024-02-21T00:26:31;11.90;41.30
30288;DHT22;17103;48.316;11.558;2024-02-21T00:28:57;11.90;41.50
30288;DHT22;17103;48.316;11.558;2024-02-21T00:31:23;11.80;41.40
30288;DHT22;17103;48.316;11.558;2024-02-21T00:33:49;11.70;41.80
30288;DHT22;17103;48.316;11.558;2024-02-21T00:36:16;11.70;42.10
30288;DHT22;17103;48.316;11.558;2024-02-21T00:38:41;11.70;42.10
30288;DHT22;17103;48.316;11.558;2024-02-21T00:41:07;11.70;42.30
30288;DHT22;17103;48.316;11.558;2024-02-21T00:43:33;11.70;42.20
30288;DHT22;17103;48.316;11.558;2024-02-21T00:45:58;11.70;42.30
30288;DHT22;17103;48.316;11.558;2024-02-21T00:48:24;11.70;42.20
30288;DHT22;17103;48.316;11.558;2024-02-21T00:50:50;11.60;41.80
30288;DHT22;17103;48.316;11.558;2024-02-21T00:53:15;11.60;41.40
30288;DHT22;17103;48.316;11.558;2024-02-21T00:55:41;11.60;41.50
30288;DHT22;17103;48.316;11.558;2024-02-21T00:58:08;11.60;41.70
30288;DHT22;17103;48.316;11.558;2024-02-21T01:00:34;11.50;41.50
30288;DHT22;17103;48.316;11.558;2024-02-21T01:03:00;11.50;41.70
30288;DHT22;17103;48.316;11.558;2024-02-21T01:05:25;11.50;41.50
30288;DHT22;17103;48.316;11.558;2024-02-21T01:07:52;11.40;41.60
30288;DHT22;17103;48.316;11.558;2024-02-21T01:10:18;11.30;41.60
30288;DHT22;17103;48.316;11.558;2024-02-21T01:12:44;11.30;41.70
30288;DHT22;17103;48.316;11.558;2024-02-21T01:15:09;11.20;41.70
30288;DHT22;17103;48.316;11.558;2024-02-21T01:17:36;11.20;41.80
30288;DHT22;17103;48.316;11.558;2024-02-21T01:20:02;11.20;41.80
30288;DHT22;17103;48.316;11.558;2024-02-21T01:22:28;11.10;41.80
30288;DHT22;17103;48.316;11.558;2024-02-21T01:24:54;11.40;42.00
30288;DHT22;17103;48.316;11.558;2024-02-21T01:27:19;11.00;41.80
30288;DHT22;17103;48.316;11.558;2024-02-21T01:29:46;11.30;42.20
30288;DHT22;17103;48.316;11.558;2024-02-21T01:32:15;11.00;42.10
30288;DHT22;17103;48.316;11.558;2024-02-21T01:34:41;11.00;42.10
30288;DHT22;17103;48.316;11.558;2024-02-21T01:37:06;10.90;42.00
30288;DHT22;17103;48.316;11.558;2024-02-21T01:39:33;10.90;42.00
30288;DHT22;17103;48.316;11.558;2024-02-21T01:41:59;10.90;41.90
30288;DHT22;17103;48.316;11.558;2024-02-21T01:44:25;10.80;42.00
30288;DHT22;17103;48.316;11.558;2024-02-21T01:46:51;10.70;42.00
30288;DHT22;17103;48.316;11.558;2024-02-21T01:49:18;10.70;42.00
30288;DHT22;17103;48.316;11.558;2024-02-21T01:51:44;10.70;42.20
30288;DHT22;17103;48.316;11.558;2024-02-21T01:54:10;10.70;42.50
30288;DHT22;17103;48.316;11.558;2024-02-21T01:56:38;10.70;42.40
30288;DHT22;17103;48.316;11.558;2024-02-21T01:59:04;10.60;42.40
30288;DHT22;17103;48.316;11.558;2024-02-21T02:01:30;10.70;42.50
30288;DHT22;17103;48.316;11.558;2024-02-21T02:03:56;10.60;42.30
30288;DHT22;17103;48.316;11.558;2024-02-21T02:06:22;10.70;42.30
30288;DHT22;17103;48.316;11.558;2024-02-21T02:08:48;10.70;42.30
30288;DHT22;17103;48.316;11.558;2024-02-21T02:11:14;10.60;42.10
30288;DHT22;17103;48.316;11.558;2024-02-21T02:13:40;10.60;42.20
30288;DHT22;17103;48.316;11.558;2024-02-21T02:16:06;10.60;42.30
30288;DHT22;17103;48.316;11.558;2024-02-21T02:18:32;11.00;43.00
30288;DHT22;17103;48.316;11.558;2024-02-21T02:20:57;10.60;42.80
30288;DHT22;17103;48.316;11.558;2024-02-21T02:25:50;10.60;42.70
30288;DHT22;17103;48.316;11.558;2024-02-21T02:28:20;10.60;42.80
30288;DHT22;17103;48.316;11.558;2024-02-21T02:30:46;10.60;42.80
30288;DHT22;17103;48.316;11.558;2024-02-21T02:33:12;10.60;42.90
30288;DHT22;17103;48.316;11.558;2024-02-21T02:35:38;10.80;43.00
30288;DHT22;17103;48.316;11.558;2024-02-21T02:38:04;10.70;43.50
30288;DHT22;17103;48.316;11.558;2024-02-21T02:40:33;10.70;43.00
30288;DHT22;17103;48.316;11.558;2024-02-21T02:42:59;10.70;43.00
30288;DHT22;17103;48.316;11.558;2024-02-21T02:45:25;11.00;43.20
30288;DHT22;17103;48.316;11.558;2024-02-21T02:47:55;10.70;42.80
30288;DHT22;17103;48.316;11.558;2024-02-21T02:50:26;10.70;42.70
30288;DHT22;17103;48.316;11.558;2024-02-21T02:52:52;10.80;42.90
30288;DHT22;17103;48.316;11.558;2024-02-21T02:55:18;10.90;42.90
30288;DHT22;17103;48.316;11.558;2024-02-21T02:57:44;10.80;42.80
30288;DHT22;17103;48.316;11.558;2024-02-21T03:00:14;10.80;42.70
30288;DHT22;17103;48.316;11.558;2024-02-21T03:02:41;10.80;42.60
30288;DHT22;17103;48.316;11.558;2024-02-21T03:05:20;10.80;42.70
30288;DHT22;17103;48.316;11.558;2024-02-21T03:07:47;10.80;42.80
30288;DHT22;17103;48.316;11.558;2024-02-21T03:10:13;10.90;43.00
30288;DHT22;17103;48.316;11.558;2024-02-21T03:12:39;10.90;42.80
30288;DHT22;17103;48.316;11.558;2024-02-21T03:15:06;11.30;43.10
30288;DHT22;17103;48.316;11.558;2024-02-21T03:17:32;10.90;42.80
30288;DHT22;17103;48.316;11.558;2024-02-21T03:20:00;10.90;42.80
30288;DHT22;17103;48.316;11.558;2024-02-21T03:22:26;10.90;42.70
30288;DHT22;17103;48.316;11.558;2024-02-21T03:24:51;10.90;42.60
30288;DHT22;17103;48.316;11.558;2024-02-21T03:27:17;10.90;42.70
30288;DHT22;17103;48.316;11.558;2024-02-21T03:29:43;10.90;42.70
30288;DHT22;17103;48.316;11.558;2024-02-21T03:32:09;10.90;43.20
30288;DHT22;17103;48.316;11.558;2024-02-21T03:34:35;10.90;42.80
30288;DHT22;17103;48.316;11.558;2024-02-21T03:37:00;10.90;42.80
30288;DHT22;17103;48.316;11.558;2024-02-21T03:39:26;10.90;42.80
30288;DHT22;17103;48.316;11.558;2024-02-21T03:41:52;11.00;42.90
30288;DHT22;17103;48.316;11.558;2024-02-21T03:44:17;10.90;43.00
30288;DHT22;17103;48.316;11.558;2024-02-21T03:46:43;11.00;43.00
30288;DHT22;17103;48.316;11.558;2024-02-21T03:49:09;11.10;42.90
30288;DHT22;17103;48.316;11.558;2024-02-21T03:51:34;11.00;42.80
30288;DHT22;17103;48.316;11.558;2024-02-21T03:54:00;11.10;43.00
30288;DHT22;17103;48.316;11.558;2024-02-21T03:56:26;11.10;43.10
30288;DHT22;17103;48.316;11.558;2024-02-21T03:58:52;11.10;42.90
30288;DHT22;17103;48.316;11.558;2024-02-21T04:01:17;11.20;42.80
30288;DHT22;17103;48.316;11.558;2024-02-21T04:03:44;11.20;42.60
30288;DHT22;17103;48.316;11.558;2024-02-21T04:06:10;11.20;42.50
30288;DHT22;17103;48.316;11.558;2024-02-21T04:08:39;11.20;42.40
30288;DHT22;17103;48.316;11.558;2024-02-21T04:11:05;11.10;42.30
30288;DHT22;17103;48.316;11.558;2024-02-21T04:13:33;11.10;42.10
30288;DHT22;17103;48.316;11.558;2024-02-21T04:15:59;11.00;41.80
30288;DHT22;17103;48.316;11.558;2024-02-21T04:18:26;10.90;42.00
30288;DHT22;17103;48.316;11.558;2024-02-21T04:20:52;10.90;42.20
30288;DHT22;17103;48.316;11.558;2024-02-21T04:23:18;10.80;42.40
30288;DHT22;17103;48.316;11.558;2024-02-21T04:25:43;10.80;42.40
30288;DHT22;17103;48.316;11.558;2024-02-21T04:28:09;10.70;42.50
30288;DHT22;17103;48.316;11.558;2024-02-21T04:30:34;10.70;42.40
30288;DHT22;17103;48.316;11.558;2024-02-21T04:33:00;10.70;42.60
30288;DHT22;17103;48.316;11.558;2024-02-21T04:35:26;10.70;42.60
30288;DHT22;17103;48.316;11.558;2024-02-21T04:37:51;10.60;42.50
30288;DHT22;17103;48.316;11.558;2024-02-21T04:40:17;10.60;42.70
30288;DHT22;17103;48.316;11.558;2024-02-21T04:42:43;10.60;42.80
30288;DHT22;17103;48.316;11.558;2024-02-21T04:45:10;10.60;42.80
30288;DHT22;17103;48.316;11.558;2024-02-21T04:47:37;10.60;42.90
30288;DHT22;17103;48.316;11.558;2024-02-21T04:50:03;10.60;42.90
30288;DHT22;17103;48.316;11.558;2024-02-21T04:52:28;10.60;42.70
30288;DHT22;17103;48.316;11.558;2024-02-21T04:54:55;10.60;42.70
30288;DHT22;17103;48.316;11.558;2024-02-21T04:57:21;10.60;42.70
30288;DHT22;17103;48.316;11.558;2024-02-21T04:59:47;10.50;42.60
30288;DHT22;17103;48.316;11.558;2024-02-21T05:02:13;10.50;42.70
30288;DHT22;17103;48.316;11.558;2024-02-21T05:04:39;10.60;42.80
30288;DHT22;17103;48.316;11.558;2024-02-21T05:07:07;10.60;42.90
30288;DHT22;17103;48.316;11.558;2024-02-21T05:09:33;10.60;42.90
30288;DHT22;17103;48.316;11.558;2024-02-21T05:11:59;10.60;42.90
30288;DHT22;17103;48.316;11.558;2024-02-21T05:14:25;10.60;42.80
30288;DHT22;17103;48.316;11.558;2024-02-21T05:16:52;10.60;42.40
30288;DHT22;17103;48.316;11.558;2024-02-21T05:19:18;10.60;43.20
30288;DHT22;17103;48.316;11.558;2024-02-21T05:21:43;10.60;42.50
30288;DHT22;17103;48.316;11.558;2024-02-21T05:24:09;10.60;42.50
30288;DHT22;17103;48.316;11.558;2024-02-21T05:26:35;10.70;42.60
30288;DHT22;17103;48.316;11.558;2024-02-21T05:29:00;10.60;42.10
30288;DHT22;17103;48.316;11.558;2024-02-21T05:31:26;10.60;42.10
30288;DHT22;17103;48.316;11.558;2024-02-21T05:34:07;10.60;42.00
30288;DHT22;17103;48.316;11.558;2024-02-21T05:36:34;10.50;42.00
30288;DHT22;17103;48.316;11.558;2024-02-21T05:38:59;10.50;42.10
30288;DHT22;17103;48.316;11.558;2024-02-21T05:41:25;10.40;42.00
30288;DHT22;17103;48.316;11.558;2024-02-21T05:43:50;10.40;41.90
30288;DHT22;17103;48.316;11.558;2024-02-21T05:46:19;10.30;41.90
30288;DHT22;17103;48.316;11.558;2024-02-21T05:48:45;10.20;42.00
30288;DHT22;17103;48.316;11.558;2024-02-21T05:51:11;10.10;41.90
30288;DHT22;17103;48.316;11.558;2024-02-21T05:53:36;10.10;42.10
30288;DHT22;17103;48.316;11.558;2024-02-21T05:56:10;10.00;42.10
30288;DHT22;17103;48.316;11.558;2024-02-21T05:58:36;9.90;42.90
30288;DHT22;17103;48.316;11.558;2024-02-21T06:01:01;9.90;43.10
30288;DHT22;17103;48.316;11.558;2024-02-21T06:03:29;9.80;43.10
30288;DHT22;17103;48.316;11.558;2024-02-21T06:05:55;9.70;43.10
30288;DHT22;17103;48.316;11.558;2024-02-21T06:08:20;9.60;43.20
30288;DHT22;17103;48.316;11.558;2024-02-21T06:10:46;9.60;43.30
30288;DHT22;17103;48.316;11.558;2024-02-21T06:13:14;9.50;43.40
30288;DHT22;17103;48.316;11.558;2024-02-21T06:15:39;9.40;43.40
30288;DHT22;17103;48.316;11.558;2024-02-21T06:18:05;9.40;43.50
30288;DHT22;17103;48.316;11.558;2024-02-21T06:20:31;9.40;43.70
30288;DHT22;17103;48.316;11.558;2024-02-21T06:22:57;9.30;43.70
30288;DHT22;17103;48.316;11.558;2024-02-21T06:25:23;9.30;43.70
30288;DHT22;17103;48.316;11.558;2024-02-21T06:27:49;9.60;44.00
30288;DHT22;17103;48.316;11.558;2024-02-21T06:30:14;9.30;43.90
30288;DHT22;17103;48.316;11.558;2024-02-21T06:32:41;9.60;44.10
30288;DHT22;17103;48.316;11.558;2024-02-21T06:35:06;9.20;43.90
30288;DHT22;17103;48.316;11.558;2024-02-21T06:37:32;9.20;44.10
30288;DHT22;17103;48.316;11.558;2024-02-21T06:39:58;9.20;44.00
30288;DHT22;17103;48.316;11.558;2024-02-21T06:42:25;9.20;44.10
30288;DHT22;17103;48.316;11.558;2024-02-21T06:44:51;9.20;44.10
30288;DHT22;17103;48.316;11.558;2024-02-21T06:47:17;9.20;44.10
30288;DHT22;17103;48.316;11.558;2024-02-21T06:49:48;9.20;44.20
30288;DHT22;17103;48.316;11.558;2024-02-21T06:52:14;9.20;44.10
30288;DHT22;17103;48.316;11.558;2024-02-21T06:54:42;9.50;44.50
30288;DHT22;17103;48.316;11.558;2024-02-21T06:57:08;9.10;44.30
30288;DHT22;17103;48.316;11.558;2024-02-21T06:59:34;9.10;44.30
30288;DHT22;17103;48.316;11.558;2024-02-21T07:01:59;9.10;44.40
30288;DHT22;17103;48.316;11.558;2024-02-21T07:04:26;9.10;44.40
30288;DHT22;17103;48.316;11.558;2024-02-21T07:06:52;9.10;44.50
30288;DHT22;17103;48.316;11.558;2024-02-21T07:09:18;9.10;44.50
30288;DHT22;17103;48.316;11.558;2024-02-21T07:11:43;9.60;45.00
30288;DHT22;17103;48.316;11.558;2024-02-21T07:14:09;9.10;44.60
30288;DHT22;17103;48.316;11.558;2024-02-21T07:16:34;9.10;44.60
30288;DHT22;17103;48.316;11.558;2024-02-21T07:19:00;9.10;44.50
30288;DHT22;17103;48.316;11.558;2024-02-21T07:21:26;9.10;44.50
30288;DHT22;17103;48.316;11.558;2024-02-21T07:23:51;9.10;44.40
30288;DHT22;17103;48.316;11.558;2024-02-21T07:26:17;9.20;44.50
30288;DHT22;17103;48.316;11.558;2024-02-21T07:28:43;9.20;44.50
30288;DHT22;17103;48.316;11.558;2024-02-21T07:31:09;9.20;44.40
30288;DHT22;17103;48.316;11.558;2024-02-21T07:33:34;9.20;44.30
30288;DHT22;17103;48.316;11.558;2024-02-21T07:36:01;9.20;44.20
30288;DHT22;17103;48.316;11.558;2024-02-21T07:38:27;9.30;43.90
30288;DHT22;17103;48.316;11.558;2024-02-21T07:40:52;9.20;44.20
30288;DHT22;17103;48.316;11.558;2024-02-21T07:43:18;9.30;44.30
30288;DHT22;17103;48.316;11.558;2024-02-21T07:45:43;9.30;44.30
30288;DHT22;17103;48.316;11.558;2024-02-21T07:48:09;9.30;44.30
30288;DHT22;17103;48.316;11.558;2024-02-21T07:50:35;9.30;44.20
30288;DHT22;17103;48.316;11.558;2024-02-21T07:53:00;9.30;44.30
30288;DHT22;17103;48.316;11.558;2024-02-21T07:55:26;9.30;44.20
30288;DHT22;17103;48.316;11.558;2024-02-21T07:57:51;9.40;44.40
30288;DHT22;17103;48.316;11.558;2024-02-21T08:00:18;9.40;44.30
30288;DHT22;17103;48.316;11.558;2024-02-21T08:02:46;9.40;44.40
30288;DHT22;17103;48.316;11.558;2024-02-21T08:05:12;9.40;44.30
30288;DHT22;17103;48.316;11.558;2024-02-21T08:07:38;9.50;44.40
30288;DHT22;17103;48.316;11.558;2024-02-21T08:10:04;9.40;44.20
30288;DHT22;17103;48.316;11.558;2024-02-21T08:12:32;9.50;44.80
30288;DHT22;17103;48.316;11.558;2024-02-21T08:14:58;9.50;44.20
30288;DHT22;17103;48.316;11.558;2024-02-21T08:17:23;9.60;44.20
30288;DHT22;17103;48.316;11.558;2024-02-21T08:19:49;9.60;43.70
30288;DHT22;17103;48.316;11.558;2024-02-21T08:22:15;9.60;43.20
30288;DHT22;17103;48.316;11.558;2024-02-21T08:24:41;9.60;43.40
30288;DHT22;17103;48.316;11.558;2024-02-21T08:27:07;9.70;44.00
30288;DHT22;17103;48.316;11.558;2024-02-21T08:29:33;9.70;43.50
30288;DHT22;17103;48.316;11.558;2024-02-21T08:31:58;9.80;43.60
30288;DHT22;17103;48.316;11.558;2024-02-21T08:34:24;9.80;43.60
30288;DHT22;17103;48.316;11.558;2024-02-21T08:36:49;9.90;43.70
30288;DHT22;17103;48.316;11.558;2024-02-21T08:39:15;9.90;43.40
30288;DHT22;17103;48.316;11.558;2024-02-21T08:41:42;10.00;42.80
30288;DHT22;17103;48.316;11.558;2024-02-21T08:44:08;10.10;42.90
30288;DHT22;17103;48.316;11.558;2024-02-21T08:46:33;10.30;43.20
30288;DHT22;17103;48.316;11.558;2024-02-21T08:48:59;10.20;43.00
30288;DHT22;17103;48.316;11.558;2024-02-21T08:51:25;10.30;43.10
30288;DHT22;17103;48.316;11.558;2024-02-21T08:53:58;10.40;43.00
30288;DHT22;17103;48.316;11.558;2024-02-21T08:56:30;10.50;43.30
30288;DHT22;17103;48.316;11.558;2024-02-21T08:58:55;10.60;43.50
30288;DHT22;17103;48.316;11.558;2024-02-21T09:01:22;10.70;43.00
30288;DHT22;17103;48.316;11.558;2024-02-21T09:03:48;10.70;42.20
30288;DHT22;17103;48.316;11.558;2024-02-21T09:06:13;10.90;42.00
30288;DHT22;17103;48.316;11.558;2024-02-21T09:08:39;11.00;42.30
30288;DHT22;17103;48.316;11.558;2024-02-21T09:11:06;11.20;42.00
30288;DHT22;17103;48.316;11.558;2024-02-21T09:13:32;11.30;42.10
30288;DHT22;17103;48.316;11.558;2024-02-21T09:15:57;11.40;41.50
30288;DHT22;17103;48.316;11.558;2024-02-21T09:18:23;11.40;41.30
30288;DHT22;17103;48.316;11.558;2024-02-21T09:20:48;11.50;41.20
30288;DHT22;17103;48.316;11.558;2024-02-21T09:23:14;11.60;40.80
30288;DHT22;17103;48.316;11.558;2024-02-21T09:25:41;11.60;40.70
30288;DHT22;17103;48.316;11.558;2024-02-21T09:28:06;12.20;40.60
30288;DHT22;17103;48.316;11.558;2024-02-21T09:30:32;11.70;40.10
30288;DHT22;17103;48.316;11.558;2024-02-21T09:32:58;12.10;39.90
30288;DHT22;17103;48.316;11.558;2024-02-21T09:35:25;11.70;39.80
30288;DHT22;17103;48.316;11.558;2024-02-21T09:37:53;11.80;39.70
30288;DHT22;17103;48.316;11.558;2024-02-21T09:40:19;12.00;39.10
30288;DHT22;17103;48.316;11.558;2024-02-21T09:42:46;11.80;38.50
30288;DHT22;17103;48.316;11.558;2024-02-21T09:45:23;11.80;38.60
30288;DHT22;17103;48.316;11.558;2024-02-21T09:48:19;11.80;37.80
30288;DHT22;17103;48.316;11.558;2024-02-21T09:50:50;11.90;37.80
30288;DHT22;17103;48.316;11.558;2024-02-21T09:53:16;11.90;38.50
30288;DHT22;17103;48.316;11.558;2024-02-21T09:55:43;12.00;38.00
30288;DHT22;17103;48.316;11.558;2024-02-21T09:58:09;12.00;38.60
30288;DHT22;17103;48.316;11.558;2024-02-21T10:00:38;12.10;39.40
30288;DHT22;17103;48.316;11.558;2024-02-21T10:03:04;12.20;39.40
30288;DHT22;17103;48.316;11.558;2024-02-21T10:05:36;12.30;38.90
30288;DHT22;17103;48.316;11.558;2024-02-21T10:08:05;12.50;38.90
30288;DHT22;17103;48.316;11.558;2024-02-21T10:10:45;12.50;39.30
30288;DHT22;17103;48.316;11.558;2024-02-21T10:13:21;12.60;38.50
30288;DHT22;17103;48.316;11.558;2024-02-21T10:15:47;12.60;37.80
30288;DHT22;17103;48.316;11.558;2024-02-21T10:18:17;12.70;38.30
30288;DHT22;17103;48.316;11.558;2024-02-21T10:20:43;12.70;37.20
30288;DHT22;17103;48.316;11.558;2024-02-21T10:23:09;12.80;37.50
30288;DHT22;17103;48.316;11.558;2024-02-21T10:25:35;12.80;37.00
30288;DHT22;17103;48.316;11.558;2024-02-21T10:28:07;12.80;37.20
30288;DHT22;17103;48.316;11.558;2024-02-21T10:30:32;12.90;37.50
30288;DHT22;17103;48.316;11.558;2024-02-21T10:32:58;12.90;37.60
30288;DHT22;17103;48.316;11.558;2024-02-21T10:35:32;13.00;38.40
30288;DHT22;17103;48.316;11.558;2024-02-21T10:37:59;13.10;37.50
30288;DHT22;17103;48.316;11.558;2024-02-21T10:40:28;13.20;37.10
30288;DHT22;17103;48.316;11.558;2024-02-21T10:42:59;13.30;36.40
30288;DHT22;17103;48.316;11.558;2024-02-21T10:45:35;13.30;36.70
30288;DHT22;17103;48.316;11.558;2024-02-21T10:48:14;13.40;37.20
30288;DHT22;17103;48.316;11.558;2024-02-21T10:51:12;13.50;36.90
30288;DHT22;17103;48.316;11.558;2024-02-21T10:56:29;13.70;36.30
30288;DHT22;17103;48.316;11.558;2024-02-21T10:58:58;13.70;35.60
30288;DHT22;17103;48.316;11.558;2024-02-21T11:01:24;13.70;35.60
30288;DHT22;17103;48.316;11.558;2024-02-21T11:03:54;13.80;35.90
30288;DHT22;17103;48.316;11.558;2024-02-21T11:06:21;13.90;37.00
30288;DHT22;17103;48.316;11.558;2024-02-21T11:08:47;13.90;37.00
30288;DHT22;17103;48.316;11.558;2024-02-21T11:11:24;14.10;36.70
30288;DHT22;17103;48.316;11.558;2024-02-21T11:13:52;14.10;35.30
30288;DHT22;17103;48.316;11.558;2024-02-21T11:16:23;14.20;35.50
30288;DHT22;17103;48.316;11.558;2024-02-21T11:18:49;14.20;35.00
30288;DHT22;17103;48.316;11.558;2024-02-21T11:21:21;14.30;34.90
30288;DHT22;17103;48.316;11.558;2024-02-21T11:23:55;14.30;35.00
30288;DHT22;17103;48.316;11.558;2024-02-21T11:26:21;14.40;34.40
30288;DHT22;17103;48.316;11.558;2024-02-21T11:28:59;14.40;33.50
30288;DHT22;17103;48.316;11.558;2024-02-21T11:31:26;14.50;34.60
30288;DHT22;17103;48.316;11.558;2024-02-21T11:33:54;14.50;34.70
30288;DHT22;17103;48.316;11.558;2024-02-21T11:36:25;14.60;35.70
30288;DHT22;17103;48.316;11.558;2024-02-21T11:38:52;14.70;34.20
30288;DHT22;17103;48.316;11.558;2024-02-21T11:41:18;14.80;35.10
30288;DHT22;17103;48.316;11.558;2024-02-21T11:43:44;14.80;34.50
30288;DHT22;17103;48.316;11.558;2024-02-21T11:46:10;14.90;34.60
30288;DHT22;17103;48.316;11.558;2024-02-21T11:48:35;14.90;32.90
30288;DHT22;17103;48.316;11.558;2024-02-21T11:51:01;14.90;33.80
30288;DHT22;17103;48.316;11.558;2024-02-21T11:53:29;15.00;33.80
30288;DHT22;17103;48.316;11.558;2024-02-21T11:55:56;15.00;32.10
30288;DHT22;17103;48.316;11.558;2024-02-21T11:58:22;15.00;32.70
30288;DHT22;17103;48.316;11.558;2024-02-21T12:00:48;15.00;32.20
30288;DHT22;17103;48.316;11.558;2024-02-21T12:03:14;15.10;33.80
30288;DHT22;17103;48.316;11.558;2024-02-21T12:05:41;15.20;34.30
30288;DHT22;17103;48.316;11.558;2024-02-21T12:08:07;15.20;34.10
30288;DHT22;17103;48.316;11.558;2024-02-21T12:10:36;15.30;33.90
30288;DHT22;17103;48.316;11.558;2024-02-21T12:13:08;15.40;34.20
30288;DHT22;17103;48.316;11.558;2024-02-21T12:15:34;15.40;32.90
30288;DHT22;17103;48.316;11.558;2024-02-21T12:18:00;15.50;32.90
30288;DHT22;17103;48.316;11.558;2024-02-21T12:20:26;15.50;32.90
30288;DHT22;17103;48.316;11.558;2024-02-21T12:22:52;15.60;33.60
30288;DHT22;17103;48.316;11.558;2024-02-21T12:25:21;15.70;33.40
30288;DHT22;17103;48.316;11.558;2024-02-21T12:27:52;15.70;33.50
30288;DHT22;17103;48.316;11.558;2024-02-21T12:30:18;15.80;34.80
30288;DHT22;17103;48.316;11.558;2024-02-21T12:32:45;15.90;32.60
30288;DHT22;17103;48.316;11.558;2024-02-21T12:35:12;15.90;32.20
30288;DHT22;17103;48.316;11.558;2024-02-21T12:37:37;16.00;30.80
30288;DHT22;17103;48.316;11.558;2024-02-21T12:40:05;16.10;31.60
30288;DHT22;17103;48.316;11.558;2024-02-21T12:42:35;16.10;32.90
30288;DHT22;17103;48.316;11.558;2024-02-21T12:45:02;16.20;33.10
30288;DHT22;17103;48.316;11.558;2024-02-21T12:47:28;16.30;34.10
30288;DHT22;17103;48.316;11.558;2024-02-21T12:49:54;16.50;33.80
30288;DHT22;17103;48.316;11.558;2024-02-21T12:52:20;16.50;33.30
30288;DHT22;17103;48.316;11.558;2024-02-21T12:54:46;16.60;32.90
30288;DHT22;17103;48.316;11.558;2024-02-21T12:57:11;16.60;32.10
30288;DHT22;17103;48.316;11.558;2024-02-21T12:59:37;16.80;32.30
30288;DHT22;17103;48.316;11.558;2024-02-21T13:02:03;16.70;32.60
30288;DHT22;17103;48.316;11.558;2024-02-21T13:04:28;16.80;31.90
30288;DHT22;17103;48.316;11.558;2024-02-21T13:06:54;16.90;31.10
30288;DHT22;17103;48.316;11.558;2024-02-21T13:09:22;16.90;30.20
30288;DHT22;17103;48.316;11.558;2024-02-21T13:11:47;16.90;28.60
30288;DHT22;17103;48.316;11.558;2024-02-21T13:14:13;17.50;30.90
30288;DHT22;17103;48.316;11.558;2024-02-21T13:16:39;17.00;30.40
30288;DHT22;17103;48.316;11.558;2024-02-21T13:19:08;17.00;30.90
30288;DHT22;17103;48.316;11.558;2024-02-21T13:21:34;17.10;30.50
30288;DHT22;17103;48.316;11.558;2024-02-21T13:24:00;17.20;32.20
30288;DHT22;17103;48.316;11.558;2024-02-21T13:26:26;17.20;30.00
30288;DHT22;17103;48.316;11.558;2024-02-21T13:28:53;17.20;29.90
30288;DHT22;17103;48.316;11.558;2024-02-21T13:31:18;17.30;30.70
30288;DHT22;17103;48.316;11.558;2024-02-21T13:33:45;17.40;31.10
30288;DHT22;17103;48.316;11.558;2024-02-21T13:36:11;17.50;32.00
30288;DHT22;17103;48.316;11.558;2024-02-21T13:38:37;17.50;31.50
30288;DHT22;17103;48.316;11.558;2024-02-21T13:41:05;17.60;31.60
30288;DHT22;17103;48.316;11.558;2024-02-21T13:43:34;17.70;32.00
30288;DHT22;17103;48.316;11.558;2024-02-21T13:46:00;17.90;31.50
30288;DHT22;17103;48.316;11.558;2024-02-21T13:48:30;17.80;32.00
30288;DHT22;17103;48.316;11.558;2024-02-21T13:50:56;18.00;30.60
30288;DHT22;17103;48.316;11.558;2024-02-21T13:53:23;18.00;31.90
30288;DHT22;17103;48.316;11.558;2024-02-21T13:55:49;18.10;30.40
30288;DHT22;17103;48.316;11.558;2024-02-21T13:58:18;18.10;31.10
30288;DHT22;17103;48.316;11.558;2024-02-21T14:00:44;18.20;31.30
30288;DHT22;17103;48.316;11.558;2024-02-21T14:03:10;18.20;31.40
30288;DHT22;17103;48.316;11.558;2024-02-21T14:05:36;18.40;31.10
30288;DHT22;17103;48.316;11.558;2024-02-21T14:08:02;18.30;29.50
30288;DHT22;17103;48.316;11.558;2024-02-21T14:10:27;18.40;29.60
30288;DHT22;17103;48.316;11.558;2024-02-21T14:12:53;18.40;29.30
30288;DHT22;17103;48.316;11.558;2024-02-21T14:15:20;18.30;29.80
30288;DHT22;17103;48.316;11.558;2024-02-21T14:17:46;18.40;29.80
30288;DHT22;17103;48.316;11.558;2024-02-21T14:20:12;18.50;30.80
30288;DHT22;17103;48.316;11.558;2024-02-21T14:22:40;18.50;29.40
30288;DHT22;17103;48.316;11.558;2024-02-21T14:25:06;18.50;30.70
30288;DHT22;17103;48.316;11.558;2024-02-21T14:27:32;18.50;30.50
30288;DHT22;17103;48.316;11.558;2024-02-21T14:29:58;18.60;30.30
30288;DHT22;17103;48.316;11.558;2024-02-21T14:32:24;18.60;30.30
30288;DHT22;17103;48.316;11.558;2024-02-21T14:34:49;18.70;30.00
30288;DHT22;17103;48.316;11.558;2024-02-21T14:37:15;18.70;29.50
30288;DHT22;17103;48.316;11.558;2024-02-21T14:39:41;18.60;29.60
30288;DHT22;17103;48.316;11.558;2024-02-21T14:42:07;18.60;29.60
30288;DHT22;17103;48.316;11.558;2024-02-21T14:44:38;18.70;29.40
30288;DHT22;17103;48.316;11.558;2024-02-21T14:47:04;18.60;29.30
30288;DHT22;17103;48.316;11.558;2024-02-21T14:49:30;18.50;29.50
30288;DHT22;17103;48.316;11.558;2024-02-21T14:51:56;18.50;29.50
30288;DHT22;17103;48.316;11.558;2024-02-21T14:54:21;18.50;28.40
30288;DHT22;17103;48.316;11.558;2024-02-21T14:56:49;18.60;28.40
30288;DHT22;17103;48.316;11.558;2024-02-21T14:59:15;18.50;29.40
30288;DHT22;17103;48.316;11.558;2024-02-21T15:01:42;18.50;29.40
30288;DHT22;17103;48.316;11.558;2024-02-21T15:04:07;18.40;28.90
30288;DHT22;17103;48.316;11.558;2024-02-21T15:06:33;18.40;29.10
30288;DHT22;17103;48.316;11.558;2024-02-21T15:09:01;18.40;28.70
30288;DHT22;17103;48.316;11.558;2024-02-21T15:11:28;18.40;28.80
30288;DHT22;17103;48.316;11.558;2024-02-21T15:13:54;18.30;28.40
30288;DHT22;17103;48.316;11.558;2024-02-21T15:16:20;18.30;28.50
30288;DHT22;17103;48.316;11.558;2024-02-21T15:18:45;18.30;28.40
30288;DHT22;17103;48.316;11.558;2024-02-21T15:21:11;18.30;28.70